• Join FlightAware (Why Join?)
  • Login
  • US Flag 
06:22AM EDT


 

Airport Tracker/Info


-or-


 

Live Flight TrackerFlight Track Log ✈ N152DC ✈ 08-May-2014 ✈ KFRG - KISP

Flight Track Log - Related Links

Times and Time Zones

All times are in EDT time to prevent confusion due to time zone crossing. See the N152DC flight status page for this flight to view local times or setup timezone preferences in your user account.

Time Position Orientation Groundspeed Altitude Reporting Facility
EDT Latitude Longitude Course Direction KTS MPH feet Rate Location/Type
12:55PM 40.7000 -73.4000 180° South 89 102 1,000  Level New York TRACON
12:56PM 40.6833 -73.4000 180° South 81 93 1,600 600 Climbing New York TRACON
12:57PM 40.6500 -73.4000 180° South 81 93 2,300 540 Climbing New York TRACON
12:58PM 40.6500 -73.3667 90° East 102 117 2,800 300 Climbing New York TRACON
12:59PM 40.6667 -73.3333 57° Northeast 118 136 2,900  Climbing New York TRACON
01:01PM 40.7167 -73.3000 27° Northeast 118 136 2,900  Level New York TRACON
01:02PM 40.7500 -73.2833 21° North 119 137 3,000  Climbing New York TRACON
01:03PM 40.7833 -73.2667 21° North 124 143 3,000  Level New York TRACON
01:04PM 40.8167 -73.2333 37° Northeast 122 140 3,000  Level New York TRACON
01:05PM 40.8333 -73.2167 37° Northeast 125 144 3,000  Level New York TRACON
01:06PM 40.8667 -73.1833 37° Northeast 126 145 3,000  Level New York TRACON
01:07PM 40.8833 -73.1500 57° Northeast 126 145 3,000 -60 Level New York TRACON
01:08PM 40.9000 -73.1167 57° Northeast 126 145 2,900  Descending New York TRACON
01:09PM 40.9167 -73.0833 57° Northeast 124 143 3,000 -120 Climbing New York TRACON
01:10PM 40.9167 -73.0333 90° East 118 136 2,700 -420 Descending New York TRACON
01:11PM 40.9167 -73.0000 90° East 114 131 2,200 -420 Descending New York TRACON
01:12PM 40.8833 -73.0000 180° South 91 105 1,900 -240 Descending New York TRACON
01:13PM 40.8667 -73.0000 180° South 88 101 1,800 -240 Descending New York TRACON
01:14PM 40.8500 -73.0333 237° Southwest 84 97 1,500 -360 Descending New York TRACON
01:15PM 40.8333 -73.0500 217° Southwest 88 101 1,200 -480 Descending New York TRACON
01:16PM 40.8167 -73.0667 217° Southwest 89 102 700 -180 Descending New York TRACON
01:17PM 40.8000 -73.1000 237° Southwest 106 122 900 300 Climbing New York TRACON
01:18PM 40.8167 -73.1167 323° Northwest 115 132 1,400 480 Climbing New York TRACON
01:19PM 40.8333 -73.1167 360° North 116 133 1,900 300 Climbing New York TRACON
01:20PM 40.8667 -73.1000 21° North 123 142 2,000 60 Climbing New York TRACON
01:21PM 40.9000 -73.0667 37° Northeast 118 136 2,100  Climbing New York TRACON
01:22PM 40.9167 -73.0500 37° Northeast 123 142 2,000 -60 Descending New York TRACON
01:23PM 40.9000 -73.0167 123° Southeast 101 116 2,000 -60 Level New York TRACON
01:24PM 40.8833 -73.0000 143° Southeast 96 110 1,900 -60 Descending New York TRACON
01:25PM 40.8667 -73.0167 217° Southwest 81 93 1,900 -300 Level New York TRACON
01:26PM 40.8500 -73.0333 217° Southwest 86 99 1,400 -540 Descending New York TRACON
01:27PM 40.8333 -73.0500 217° Southwest 92 106 900 -480 Descending New York TRACON
01:28PM 40.8167 -73.0833 237° Southwest 96 110 500  Descending New York TRACON
01:29PM 40.8000 -73.1000 217° Southwest 105 121 900 540 Climbing New York TRACON
01:30PM 40.7833 -73.1333 237° Southwest 94 108 1,600 480 Climbing New York TRACON
01:31PM 40.7833 -73.1667 270° West 102 117 1,900 180 Climbing New York TRACON
01:32PM 40.8000 -73.2167 294° West 118 136 2,000  Climbing New York TRACON
01:33PM 40.8000 -73.2500 270° West 102 117 1,900  Descending New York TRACON
01:34PM 40.8000 -73.2833 270° West 100 115 2,000  Climbing New York TRACON
01:35PM 40.8000 -73.3333 270° West 108 124 2,000  Level New York TRACON
01:36PM 40.8167 -73.3667 303° West 107 123 2,000  Level New York TRACON
01:37PM 40.8167 -73.4000 270° West 108 124 2,000 -60 Level New York TRACON
01:38PM 40.8333 -73.4333 303° West 108 124 1,900  Descending New York TRACON
01:39PM 40.8333 -73.4667 270° West 98 113 2,000  Climbing New York TRACON
01:40PM 40.8167 -73.5000 237° Southwest 95 109 2,000 -240 Level New York TRACON
01:41PM 40.8000 -73.5000 180° South 87 100 1,600 -300 Descending New York TRACON
01:42PM 40.7833 -73.4833 143° Southeast 80 92 1,500 -300 Descending New York TRACON
01:43PM 40.7667 -73.4667 143° Southeast 85 98 1,100 -420 Descending New York TRACON